Historique des stations

Station météo de Luçay-le-Libre

Altitude de la station : 138 m







Données météorologiques pour le 03/03/2021
Date
Heure
Températures Humidité Point de rosée Vitesse
du vent
Direction Rafales Windchill Pression Pluviométrie
Cumul
Date
Heure
Températures Humidité Point de rosée Vitesse
du vent
Direction Rafales Windchill Pression Pluviométrie
Cumul
03/03/2021 21:298.7 °C78 %5.0 °C5 km/hSSE11 km/h8.3 1027 hPa-
03/03/2021 21:148.6 °C79 %5.0 °C2 km/hSE11 km/h8.9 1027 hPa-
03/03/2021 20:598.8 °C77 %5.0 °C-ESE11 km/h8.9 1027 hPa-
03/03/2021 20:449.1 °C74 %4.4 °C-SE11 km/h8.9 1027 hPa-
03/03/2021 20:298.4 °C78 %5.0 °C-SE11 km/h8.3 1027 hPa-
03/03/2021 20:149.2 °C75 %5.0 °C-ESE11 km/h9.4 1027 hPa-
03/03/2021 19:599.9 °C73 %5.6 °C-E11 km/h10.0 1027 hPa-
03/03/2021 19:4410.1 °C73 %5.6 °C-ESE11 km/h10.0 1027 hPa-
03/03/2021 19:2810.2 °C70 %5.0 °C-ESE11 km/h10.0 1027 hPa-
03/03/2021 19:1410.3 °C69 %5.0 °C-SE11 km/h10.6 1027 hPa-
03/03/2021 18:5911.1 °C67 %5.0 °C5 km/hESE11 km/h11.1 1027 hPa-
03/03/2021 18:4511.3 °C67 %5.6 °C5 km/hESE11 km/h11.1 1027 hPa-
03/03/2021 18:3011.8 °C66 %5.6 °C5 km/hESE11 km/h11.7 1027 hPa-
03/03/2021 18:1512.7 °C66 %6.7 °C2 km/hESE11 km/h12.8 1027 hPa-
03/03/2021 18:0013.6 °C62 %6.1 °C3 km/hESE11 km/h13.9 1027 hPa-
03/03/2021 17:4514.3 °C58 %6.1 °C5 km/hSE11 km/h14.4 1027 hPa-
03/03/2021 17:3014.7 °C60 %6.7 °C5 km/hSE11 km/h15.0 1027 hPa-
03/03/2021 17:1515.0 °C55 %6.1 °C3 km/hSE11 km/h15.0 1027 hPa-
03/03/2021 17:0015.3 °C57 %6.7 °C5 km/hSE11 km/h15.6 1028 hPa-
03/03/2021 16:4515.5 °C56 %6.7 °C6 km/hSSE11 km/h15.6 1028 hPa-
03/03/2021 16:3015.7 °C53 %6.1 °C5 km/hSE11 km/h15.6 1028 hPa-
03/03/2021 16:1516.4 °C53 %6.7 °C-SE11 km/h16.7 1028 hPa-
03/03/2021 16:0015.7 °C54 %6.1 °C2 km/hSE10 km/h15.6 1028 hPa-
03/03/2021 15:4516.2 °C54 %6.7 °C2 km/hS10 km/h16.1 1028 hPa-
03/03/2021 15:2915.7 °C53 %6.1 °C2 km/hSSO10 km/h15.6 1028 hPa-
03/03/2021 15:1415.9 °C53 %6.1 °C-SO10 km/h16.1 1028 hPa-
03/03/2021 14:5915.9 °C58 %7.8 °C3 km/hSE10 km/h16.1 1028 hPa-
03/03/2021 14:4415.9 °C55 %6.7 °C-O10 km/h16.1 1029 hPa-
03/03/2021 14:2915.7 °C53 %6.1 °C-S10 km/h15.6 1029 hPa-
03/03/2021 14:1415.3 °C55 %6.1 °C-SSO10 km/h15.6 1029 hPa-
03/03/2021 13:5915.3 °C55 %6.1 °C-SE10 km/h15.6 1029 hPa-
03/03/2021 13:4415.3 °C52 %5.6 °C-OSO10 km/h15.6 1029 hPa-
03/03/2021 13:3015.1 °C53 %5.6 °C6 km/hSSE10 km/h15.0 1029 hPa-
03/03/2021 13:1515.6 °C48 %4.4 °C-OSO10 km/h15.6 1030 hPa-
03/03/2021 13:0015.2 °C52 %5.6 °C-OSO10 km/h15.0 1030 hPa-
03/03/2021 12:4515.1 °C54 %5.6 °C-SO10 km/h15.0 1030 hPa-
03/03/2021 12:3014.9 °C53 %5.6 °C5 km/hSSE10 km/h15.0 1030 hPa-
03/03/2021 12:1515.1 °C50 %4.4 °C2 km/hNO10 km/h15.0 1030 hPa-
03/03/2021 12:0015.0 °C48 %3.9 °C3 km/hSSO10 km/h15.0 1030 hPa-
03/03/2021 11:4514.4 °C50 %3.9 °C-O10 km/h14.4 1030 hPa-
03/03/2021 11:3013.3 °C56 %4.4 °C-OSO10 km/h13.3 1030 hPa-
03/03/2021 09:083.9 °C85 %1.7 °C-SE6 km/h3.9 1031 hPa-
03/03/2021 09:083.9 °C85 %1.7 °C-SE6 km/h3.9 1031 hPa-
03/03/2021 09:083.9 °C85 %1.7 °C-SE6 km/h3.9 1031 hPa-
03/03/2021 09:083.9 °C85 %1.7 °C-SE6 km/h3.9 1031 hPa-
03/03/2021 09:083.9 °C85 %1.7 °C-SE6 km/h3.9 1031 hPa-
03/03/2021 09:083.9 °C85 %1.7 °C-SE6 km/h3.9 1031 hPa-
03/03/2021 09:083.9 °C85 %1.7 °C-SE6 km/h3.9 1031 hPa-
03/03/2021 09:083.9 °C85 %1.7 °C-SE6 km/h3.9 1031 hPa-
03/03/2021 09:083.9 °C85 %1.7 °C-SE6 km/h3.9 1031 hPa-
03/03/2021 09:003.7 °C85 %1.7 °C-SE6 km/h3.9 1031 hPa-
03/03/2021 08:453.4 °C86 %1.1 °C-SE6 km/h3.3 1030 hPa-
03/03/2021 08:293.8 °C82 %1.1 °C-SE6 km/h3.9 1031 hPa-
03/03/2021 08:143.9 °C82 %1.1 °C-SE6 km/h3.9 1030 hPa-
03/03/2021 07:593.7 °C83 %1.1 °C5 km/hESE6 km/h2.8 1030 hPa-
03/03/2021 07:442.6 °C88 %0.6 °C-SE5 km/h2.8 1030 hPa-
03/03/2021 07:293.2 °C85 %1.1 °C-SE5 km/h3.3 1030 hPa-
03/03/2021 07:143.6 °C83 %1.1 °C-SE5 km/h3.3 1030 hPa-
03/03/2021 06:593.8 °C83 %1.1 °C-SE5 km/h3.9 1030 hPa-
03/03/2021 06:444.5 °C81 %1.7 °C-ESE5 km/h4.4 1030 hPa-
03/03/2021 06:294.1 °C84 %1.7 °C-SE5 km/h3.9 1030 hPa-
03/03/2021 06:154.1 °C84 %1.7 °C-SE5 km/h3.9 1030 hPa-
03/03/2021 06:004.3 °C84 %1.7 °C2 km/hESE5 km/h3.9 1030 hPa-
03/03/2021 05:454.3 °C84 %1.7 °C2 km/hSE5 km/h3.9 1030 hPa-
03/03/2021 05:304.4 °C83 %1.7 °C2 km/hESE5 km/h3.9 1030 hPa-
03/03/2021 05:153.8 °C86 %1.7 °C2 km/hESE3 km/h3.3 1030 hPa-
03/03/2021 05:004.1 °C84 %1.7 °C-ESE3 km/h3.9 1030 hPa-
03/03/2021 04:454.4 °C82 %1.7 °C-ESE3 km/h4.4 1030 hPa-
03/03/2021 04:305.1 °C80 %1.7 °C-ESE3 km/h5.0 1030 hPa-
03/03/2021 04:155.7 °C77 %2.2 °C-ESE3 km/h5.6 1030 hPa-
03/03/2021 04:005.3 °C80 %2.2 °C2 km/hSE3 km/h5.6 1030 hPa-
03/03/2021 03:456.9 °C73 %2.2 °C---6.7 1030 hPa-
03/03/2021 03:296.5 °C77 %2.8 °C---6.7 1030 hPa-
03/03/2021 03:145.9 °C80 %2.8 °C---6.1 1030 hPa-
03/03/2021 02:596.0 °C80 %2.8 °C---6.1 1030 hPa-
03/03/2021 02:445.9 °C83 %3.3 °C---6.1 1030 hPa-
03/03/2021 02:296.6 °C82 %3.9 °C---6.7 1030 hPa-
03/03/2021 02:146.6 °C82 %3.9 °C---6.7 1030 hPa-
03/03/2021 01:596.2 °C84 %3.9 °C---6.1 1030 hPa-
03/03/2021 01:446.1 °C85 %3.9 °C---6.1 1030 hPa-
03/03/2021 01:295.8 °C86 %3.9 °C---6.1 1030 hPa-
03/03/2021 01:145.7 °C87 %3.9 °C---5.6 1030 hPa-
03/03/2021 00:595.9 °C83 %3.3 °C---6.1 1030 hPa-
03/03/2021 00:455.9 °C84 %3.3 °C---6.1 1029 hPa-
03/03/2021 00:306.3 °C84 %3.9 °C---6.1 1029 hPa-
03/03/2021 00:156.8 °C80 %3.3 °C---6.7 1029 hPa-
03/03/2021 00:007.4 °C80 %4.4 °C---7.2 1029 hPa-


Minima :

Température : 2.6 °C
Humidité : 48 %
Point de rosée : 0.6 °C
Vent moyen : 2 km/h
Windchill : 2.8
Pression atm. : 1027 hPa
Maxima :

Température : 16.4 °C
Humidité : 88 %
Point de rosée : 7.8 °C
Vent moyen : 6 km/h
Windchill : 16.7
Pression atm. : 1031 hPa
Rafales max : 11 km/h
Cumul de pluie sur 24H : 0 mm

Luçay-le-Libre est une commune du département Indre (36).
La station météorologique du réseau de l'association la plus proche de Luçay-le-Libre est celle de Graçay



Icône Facebook Association Météo Centre Icône Twitter Association Météo Centre Icône Chaîne Youtube Association Météo Centre Icône contact Association Météo Centre Icône Insta Association Météo Centre